Forside
METAR-TAF:

METAR-TAF

Lufthavne :

Bellaire, Michigan, USA

Breddekreds: 44-59-18N, længdekreds: 085-11-54W, højde: 190 m

Aktuelle vejr

Denne rapport blev lavet for 33 minutter siden, kl. 17:55 UTC
Vind 6 kt fra sydvest
Temperatur 7°C
Fugtighed 57%
Tryk 1008 hPa
Sigt: 16.1 km
skyfri

METAR: KACB 231755Z AUTO 23006KT 10SM CLR 07/M01 A2977 RMK AO2 T00731011 10073 21018

Tid: 13:28 (18:28 UTC)


TAF: fraværende

Vejrobservationer og prognoser fra mere end 4000 lufthavne (METAR og TAF).

De gule og røde prikker repræsenterer de meteorologiske stationer.

Flyt musen over at se navnet på stationen.

Så klik over at se vejr observationer og prognoser.

At skifte det kort: Klik på de grønne knapper med et sort kors for at zoome ind; på den grønne knap med en bindestreg for at zoome ud; eller på de grønne pile for tilstødende kort.


METAR-TAF: